sensor_id;sensor_type;location;lat;lon;timestamp;pressure;altitude;pressure_sealevel;temperature;humidity
11936;BME280;6027;48.576;9.180;2022-12-29T00:01:24;96490.41;;;6.02;100.00
11936;BME280;6027;48.576;9.180;2022-12-29T00:03:49;96492.22;;;6.02;100.00
11936;BME280;6027;48.576;9.180;2022-12-29T00:06:15;96500.13;;;6.10;100.00
11936;BME280;6027;48.576;9.180;2022-12-29T00:08:40;96491.75;;;6.31;100.00
11936;BME280;6027;48.576;9.180;2022-12-29T00:11:11;96495.69;;;6.43;100.00
11936;BME280;6027;48.576;9.180;2022-12-29T00:13:38;96484.00;;;6.53;100.00
11936;BME280;6027;48.576;9.180;2022-12-29T00:16:27;96495.66;;;6.67;100.00
11936;BME280;6027;48.576;9.180;2022-12-29T00:18:53;96479.66;;;6.85;100.00
11936;BME280;6027;48.576;9.180;2022-12-29T00:21:20;96480.97;;;6.89;100.00
11936;BME280;6027;48.576;9.180;2022-12-29T00:24:05;96471.22;;;7.06;100.00
11936;BME280;6027;48.576;9.180;2022-12-29T00:26:40;96465.31;;;6.96;100.00
11936;BME280;6027;48.576;9.180;2022-12-29T00:29:24;96456.75;;;6.93;100.00
11936;BME280;6027;48.576;9.180;2022-12-29T00:32:09;96450.66;;;7.01;100.00
11936;BME280;6027;48.576;9.180;2022-12-29T00:34:53;96452.31;;;6.94;100.00
11936;BME280;6027;48.576;9.180;2022-12-29T00:37:36;96450.16;;;6.98;100.00
11936;BME280;6027;48.576;9.180;2022-12-29T00:40:21;96443.97;;;6.82;100.00
11936;BME280;6027;48.576;9.180;2022-12-29T00:43:05;96446.19;;;6.54;100.00
11936;BME280;6027;48.576;9.180;2022-12-29T00:45:49;96446.50;;;6.59;100.00
11936;BME280;6027;48.576;9.180;2022-12-29T00:48:14;96448.00;;;6.54;100.00
11936;BME280;6027;48.576;9.180;2022-12-29T00:50:40;96444.56;;;6.45;100.00
11936;BME280;6027;48.576;9.180;2022-12-29T00:53:05;96438.00;;;6.49;100.00
11936;BME280;6027;48.576;9.180;2022-12-29T00:55:30;96442.75;;;6.46;100.00
11936;BME280;6027;48.576;9.180;2022-12-29T00:57:56;96449.81;;;6.37;100.00
11936;BME280;6027;48.576;9.180;2022-12-29T01:00:21;96450.31;;;6.49;100.00
11936;BME280;6027;48.576;9.180;2022-12-29T01:02:47;96445.88;;;6.41;100.00
11936;BME280;6027;48.576;9.180;2022-12-29T01:05:12;96432.56;;;6.51;100.00
11936;BME280;6027;48.576;9.180;2022-12-29T01:07:38;96437.47;;;6.62;100.00
11936;BME280;6027;48.576;9.180;2022-12-29T01:10:03;96432.88;;;6.56;100.00
11936;BME280;6027;48.576;9.180;2022-12-29T01:12:35;96433.84;;;6.63;100.00
11936;BME280;6027;48.576;9.180;2022-12-29T01:15:08;96441.41;;;6.58;100.00
11936;BME280;6027;48.576;9.180;2022-12-29T01:17:34;96438.44;;;6.69;100.00
11936;BME280;6027;48.576;9.180;2022-12-29T01:20:00;96440.75;;;6.64;100.00
11936;BME280;6027;48.576;9.180;2022-12-29T01:22:26;96440.25;;;6.61;100.00
11936;BME280;6027;48.576;9.180;2022-12-29T01:24:52;96439.94;;;6.64;100.00
11936;BME280;6027;48.576;9.180;2022-12-29T01:27:17;96437.78;;;6.59;100.00
11936;BME280;6027;48.576;9.180;2022-12-29T01:29:42;96444.03;;;6.66;100.00
11936;BME280;6027;48.576;9.180;2022-12-29T01:32:08;96446.66;;;6.66;100.00
11936;BME280;6027;48.576;9.180;2022-12-29T01:34:33;96449.13;;;6.68;100.00
11936;BME280;6027;48.576;9.180;2022-12-29T01:36:59;96458.66;;;6.61;100.00
11936;BME280;6027;48.576;9.180;2022-12-29T01:39:24;96457.84;;;6.68;100.00
11936;BME280;6027;48.576;9.180;2022-12-29T01:41:49;96457.47;;;6.79;100.00
11936;BME280;6027;48.576;9.180;2022-12-29T01:47:08;96453.13;;;6.94;100.00
11936;BME280;6027;48.576;9.180;2022-12-29T01:49:34;96460.81;;;7.12;100.00
11936;BME280;6027;48.576;9.180;2022-12-29T01:52:03;96459.81;;;7.13;100.00
11936;BME280;6027;48.576;9.180;2022-12-29T01:54:38;96444.13;;;7.28;100.00
11936;BME280;6027;48.576;9.180;2022-12-29T01:57:11;96448.81;;;7.49;100.00
11936;BME280;6027;48.576;9.180;2022-12-29T01:59:41;96453.59;;;7.45;100.00
11936;BME280;6027;48.576;9.180;2022-12-29T02:02:09;96449.63;;;7.49;100.00
11936;BME280;6027;48.576;9.180;2022-12-29T02:04:37;96447.81;;;7.50;100.00
11936;BME280;6027;48.576;9.180;2022-12-29T02:07:09;96438.56;;;7.77;100.00
11936;BME280;6027;48.576;9.180;2022-12-29T02:09:36;96433.81;;;7.95;97.26
11936;BME280;6027;48.576;9.180;2022-12-29T02:12:02;96440.69;;;8.04;96.61
11936;BME280;6027;48.576;9.180;2022-12-29T02:14:28;96433.88;;;8.10;96.02
11936;BME280;6027;48.576;9.180;2022-12-29T02:32:37;96432.47;;;8.89;87.09
11936;BME280;6027;48.576;9.180;2022-12-29T02:35:09;96423.53;;;9.05;85.06
11936;BME280;6027;48.576;9.180;2022-12-29T02:40:50;96427.88;;;9.27;81.73
11936;BME280;6027;48.576;9.180;2022-12-29T02:43:25;96417.59;;;9.32;81.38
11936;BME280;6027;48.576;9.180;2022-12-29T02:45:58;96426.22;;;9.41;80.15
11936;BME280;6027;48.576;9.180;2022-12-29T02:48:25;96417.63;;;9.53;78.90
11936;BME280;6027;48.576;9.180;2022-12-29T02:51:04;96412.78;;;9.57;78.70
11936;BME280;6027;48.576;9.180;2022-12-29T02:53:33;96417.75;;;9.66;78.45
11936;BME280;6027;48.576;9.180;2022-12-29T02:56:18;96413.38;;;9.74;76.84
11936;BME280;6027;48.576;9.180;2022-12-29T02:58:44;96405.69;;;9.79;76.27
11936;BME280;6027;48.576;9.180;2022-12-29T03:01:14;96408.84;;;9.89;75.02
11936;BME280;6027;48.576;9.180;2022-12-29T03:09:26;96413.84;;;10.05;73.69
11936;BME280;6027;48.576;9.180;2022-12-29T03:14:52;96429.28;;;10.01;72.30
11936;BME280;6027;48.576;9.180;2022-12-29T03:20:23;96412.56;;;9.94;73.03
11936;BME280;6027;48.576;9.180;2022-12-29T03:22:53;96421.16;;;10.03;72.93
11936;BME280;6027;48.576;9.180;2022-12-29T03:25:30;96421.56;;;10.00;72.28
11936;BME280;6027;48.576;9.180;2022-12-29T03:27:59;96410.41;;;10.04;72.06
11936;BME280;6027;48.576;9.180;2022-12-29T03:30:28;96410.59;;;10.03;72.70
11936;BME280;6027;48.576;9.180;2022-12-29T03:32:58;96419.22;;;10.12;70.94
11936;BME280;6027;48.576;9.180;2022-12-29T03:35:27;96422.13;;;10.17;70.29
11936;BME280;6027;48.576;9.180;2022-12-29T03:38:38;96419.78;;;10.07;69.56
11936;BME280;6027;48.576;9.180;2022-12-29T03:41:08;96408.81;;;10.10;69.66
11936;BME280;6027;48.576;9.180;2022-12-29T03:43:37;96402.25;;;9.99;70.98
11936;BME280;6027;48.576;9.180;2022-12-29T03:46:02;96406.72;;;9.99;70.09
11936;BME280;6027;48.576;9.180;2022-12-29T03:48:28;96417.09;;;10.00;71.21
11936;BME280;6027;48.576;9.180;2022-12-29T03:50:53;96407.13;;;10.02;70.59
11936;BME280;6027;48.576;9.180;2022-12-29T03:53:19;96400.63;;;10.05;70.73
11936;BME280;6027;48.576;9.180;2022-12-29T03:55:44;96392.31;;;10.08;69.75
11936;BME280;6027;48.576;9.180;2022-12-29T03:58:10;96387.28;;;10.13;69.18
11936;BME280;6027;48.576;9.180;2022-12-29T04:00:35;96387.78;;;10.02;69.77
11936;BME280;6027;48.576;9.180;2022-12-29T04:03:12;96389.69;;;10.08;69.44
11936;BME280;6027;48.576;9.180;2022-12-29T04:05:38;96394.09;;;10.01;70.51
11936;BME280;6027;48.576;9.180;2022-12-29T04:08:03;96399.97;;;9.96;70.79
11936;BME280;6027;48.576;9.180;2022-12-29T04:10:29;96394.97;;;9.87;71.31
11936;BME280;6027;48.576;9.180;2022-12-29T04:12:54;96394.69;;;9.75;72.59
11936;BME280;6027;48.576;9.180;2022-12-29T04:15:20;96398.88;;;9.69;72.67
11936;BME280;6027;48.576;9.180;2022-12-29T04:17:45;96389.69;;;9.65;73.05
11936;BME280;6027;48.576;9.180;2022-12-29T04:20:10;96390.84;;;9.56;73.98
11936;BME280;6027;48.576;9.180;2022-12-29T04:23:04;96396.16;;;9.63;72.80
11936;BME280;6027;48.576;9.180;2022-12-29T04:25:31;96395.28;;;9.56;74.04
11936;BME280;6027;48.576;9.180;2022-12-29T04:27:57;96399.38;;;9.37;76.48
11936;BME280;6027;48.576;9.180;2022-12-29T04:30:22;96399.09;;;9.32;77.60
11936;BME280;6027;48.576;9.180;2022-12-29T04:32:48;96409.84;;;9.30;77.14
11936;BME280;6027;48.576;9.180;2022-12-29T04:35:13;96414.94;;;9.32;77.49
11936;BME280;6027;48.576;9.180;2022-12-29T04:37:39;96417.69;;;9.24;77.80
11936;BME280;6027;48.576;9.180;2022-12-29T04:40:05;96416.06;;;9.23;79.04
11936;BME280;6027;48.576;9.180;2022-12-29T04:42:30;96407.88;;;9.18;78.99
11936;BME280;6027;48.576;9.180;2022-12-29T04:44:55;96402.75;;;9.31;78.36
11936;BME280;6027;48.576;9.180;2022-12-29T04:47:21;96396.72;;;9.37;76.27
11936;BME280;6027;48.576;9.180;2022-12-29T04:49:46;96389.97;;;9.34;76.10
11936;BME280;6027;48.576;9.180;2022-12-29T04:52:12;96384.25;;;9.31;76.32
11936;BME280;6027;48.576;9.180;2022-12-29T04:54:37;96388.91;;;9.29;77.07
11936;BME280;6027;48.576;9.180;2022-12-29T04:57:03;96395.19;;;9.28;77.06
11936;BME280;6027;48.576;9.180;2022-12-29T04:59:28;96394.47;;;9.19;77.63
11936;BME280;6027;48.576;9.180;2022-12-29T05:01:54;96393.47;;;9.20;77.19
11936;BME280;6027;48.576;9.180;2022-12-29T05:04:19;96398.81;;;9.27;76.45
11936;BME280;6027;48.576;9.180;2022-12-29T05:06:45;96409.16;;;9.43;76.28
11936;BME280;6027;48.576;9.180;2022-12-29T05:09:10;96407.69;;;9.55;75.60
11936;BME280;6027;48.576;9.180;2022-12-29T05:11:35;96405.19;;;9.68;74.62
11936;BME280;6027;48.576;9.180;2022-12-29T05:14:01;96411.34;;;9.76;74.67
11936;BME280;6027;48.576;9.180;2022-12-29T05:16:26;96415.00;;;9.75;75.18
11936;BME280;6027;48.576;9.180;2022-12-29T05:18:51;96417.31;;;9.84;73.83
11936;BME280;6027;48.576;9.180;2022-12-29T05:21:17;96413.69;;;9.85;72.56
11936;BME280;6027;48.576;9.180;2022-12-29T05:23:42;96410.28;;;9.91;72.33
11936;BME280;6027;48.576;9.180;2022-12-29T05:26:08;96414.63;;;9.99;71.72
11936;BME280;6027;48.576;9.180;2022-12-29T05:28:33;96410.09;;;9.93;73.12
11936;BME280;6027;48.576;9.180;2022-12-29T05:30:59;96416.22;;;9.93;72.37
11936;BME280;6027;48.576;9.180;2022-12-29T05:33:24;96420.03;;;9.91;72.41
11936;BME280;6027;48.576;9.180;2022-12-29T05:35:50;96424.31;;;9.92;71.63
11936;BME280;6027;48.576;9.180;2022-12-29T05:38:15;96426.59;;;9.95;71.93
11936;BME280;6027;48.576;9.180;2022-12-29T05:40:41;96427.03;;;9.98;72.10
11936;BME280;6027;48.576;9.180;2022-12-29T05:43:06;96418.13;;;10.06;70.19
11936;BME280;6027;48.576;9.180;2022-12-29T05:45:31;96399.00;;;10.04;71.29
11936;BME280;6027;48.576;9.180;2022-12-29T05:47:57;96409.38;;;10.05;71.23
11936;BME280;6027;48.576;9.180;2022-12-29T05:50:22;96403.88;;;10.00;71.52
11936;BME280;6027;48.576;9.180;2022-12-29T05:52:48;96391.88;;;10.04;71.07
11936;BME280;6027;48.576;9.180;2022-12-29T05:55:13;96401.84;;;10.02;71.32
11936;BME280;6027;48.576;9.180;2022-12-29T05:57:39;96391.50;;;10.08;72.25
11936;BME280;6027;48.576;9.180;2022-12-29T06:00:05;96396.34;;;10.04;72.37
11936;BME280;6027;48.576;9.180;2022-12-29T06:02:30;96391.22;;;9.96;72.76
11936;BME280;6027;48.576;9.180;2022-12-29T06:04:56;96393.03;;;9.95;72.13
11936;BME280;6027;48.576;9.180;2022-12-29T06:07:21;96388.56;;;9.96;73.08
11936;BME280;6027;48.576;9.180;2022-12-29T06:09:47;96397.06;;;9.91;73.68
11936;BME280;6027;48.576;9.180;2022-12-29T06:12:12;96383.47;;;9.94;73.51
11936;BME280;6027;48.576;9.180;2022-12-29T06:14:38;96376.16;;;9.96;73.99
11936;BME280;6027;48.576;9.180;2022-12-29T06:17:03;96365.16;;;9.93;74.29
11936;BME280;6027;48.576;9.180;2022-12-29T06:19:29;96368.91;;;9.84;75.14
11936;BME280;6027;48.576;9.180;2022-12-29T06:21:54;96372.19;;;9.86;75.39
11936;BME280;6027;48.576;9.180;2022-12-29T06:24:20;96365.22;;;9.78;76.33
11936;BME280;6027;48.576;9.180;2022-12-29T06:26:46;96370.25;;;9.73;76.66
11936;BME280;6027;48.576;9.180;2022-12-29T06:29:11;96369.56;;;9.64;77.48
11936;BME280;6027;48.576;9.180;2022-12-29T06:31:44;96363.78;;;9.76;76.60
11936;BME280;6027;48.576;9.180;2022-12-29T06:34:11;96365.84;;;9.80;76.36
11936;BME280;6027;48.576;9.180;2022-12-29T06:36:38;96364.69;;;9.89;76.50
11936;BME280;6027;48.576;9.180;2022-12-29T06:39:04;96364.84;;;9.81;76.90
11936;BME280;6027;48.576;9.180;2022-12-29T06:41:29;96368.72;;;9.85;77.90
11936;BME280;6027;48.576;9.180;2022-12-29T06:43:55;96378.75;;;9.90;78.12
11936;BME280;6027;48.576;9.180;2022-12-29T06:46:20;96383.97;;;9.83;78.06
11936;BME280;6027;48.576;9.180;2022-12-29T06:48:45;96376.72;;;9.92;77.86
11936;BME280;6027;48.576;9.180;2022-12-29T06:51:11;96377.81;;;9.97;78.53
11936;BME280;6027;48.576;9.180;2022-12-29T06:53:36;96375.53;;;9.94;78.78
11936;BME280;6027;48.576;9.180;2022-12-29T06:56:02;96370.44;;;9.93;78.19
11936;BME280;6027;48.576;9.180;2022-12-29T06:58:27;96369.69;;;9.99;77.48
11936;BME280;6027;48.576;9.180;2022-12-29T07:00:53;96363.78;;;10.03;77.75
11936;BME280;6027;48.576;9.180;2022-12-29T07:03:18;96364.44;;;10.05;77.85
11936;BME280;6027;48.576;9.180;2022-12-29T07:05:44;96375.44;;;10.09;77.81
11936;BME280;6027;48.576;9.180;2022-12-29T07:08:09;96359.63;;;10.16;78.01
11936;BME280;6027;48.576;9.180;2022-12-29T07:10:35;96354.66;;;10.27;76.98
11936;BME280;6027;48.576;9.180;2022-12-29T07:13:00;96359.88;;;10.21;79.00
11936;BME280;6027;48.576;9.180;2022-12-29T07:15:26;96365.41;;;10.19;77.95
11936;BME280;6027;48.576;9.180;2022-12-29T07:17:52;96365.25;;;10.27;78.15
11936;BME280;6027;48.576;9.180;2022-12-29T07:20:17;96352.19;;;10.26;78.88
11936;BME280;6027;48.576;9.180;2022-12-29T07:22:43;96350.38;;;10.26;78.19
11936;BME280;6027;48.576;9.180;2022-12-29T07:25:08;96359.13;;;10.27;78.77
11936;BME280;6027;48.576;9.180;2022-12-29T07:27:33;96360.53;;;10.23;78.56
11936;BME280;6027;48.576;9.180;2022-12-29T07:29:59;96360.13;;;10.19;79.61
11936;BME280;6027;48.576;9.180;2022-12-29T07:32:24;96364.81;;;10.24;79.85
11936;BME280;6027;48.576;9.180;2022-12-29T07:34:50;96359.28;;;10.19;79.90
11936;BME280;6027;48.576;9.180;2022-12-29T07:37:15;96361.09;;;10.18;79.43
11936;BME280;6027;48.576;9.180;2022-12-29T07:39:41;96361.72;;;10.20;80.66
11936;BME280;6027;48.576;9.180;2022-12-29T07:42:07;96353.28;;;10.10;81.56
11936;BME280;6027;48.576;9.180;2022-12-29T07:44:32;96363.28;;;10.15;82.06
11936;BME280;6027;48.576;9.180;2022-12-29T07:46:57;96373.44;;;10.11;81.93
11936;BME280;6027;48.576;9.180;2022-12-29T07:49:23;96375.38;;;10.24;81.29
11936;BME280;6027;48.576;9.180;2022-12-29T07:51:49;96372.56;;;10.25;81.34
11936;BME280;6027;48.576;9.180;2022-12-29T07:54:14;96367.44;;;10.24;81.31
11936;BME280;6027;48.576;9.180;2022-12-29T07:56:43;96379.84;;;10.23;82.41
11936;BME280;6027;48.576;9.180;2022-12-29T07:59:09;96374.50;;;10.38;80.84
11936;BME280;6027;48.576;9.180;2022-12-29T08:01:35;96382.25;;;10.46;80.48
11936;BME280;6027;48.576;9.180;2022-12-29T08:04:00;96385.69;;;10.40;81.13
11936;BME280;6027;48.576;9.180;2022-12-29T08:06:26;96380.25;;;10.48;81.21
11936;BME280;6027;48.576;9.180;2022-12-29T08:08:51;96376.97;;;10.46;81.01
11936;BME280;6027;48.576;9.180;2022-12-29T08:11:16;96389.44;;;10.52;80.90
11936;BME280;6027;48.576;9.180;2022-12-29T08:13:42;96379.47;;;10.54;79.54
11936;BME280;6027;48.576;9.180;2022-12-29T08:16:07;96392.53;;;10.56;80.69
11936;BME280;6027;48.576;9.180;2022-12-29T08:18:33;96394.56;;;10.60;79.77
11936;BME280;6027;48.576;9.180;2022-12-29T08:21:03;96397.06;;;10.68;78.83
11936;BME280;6027;48.576;9.180;2022-12-29T08:23:28;96399.34;;;10.71;78.70
11936;BME280;6027;48.576;9.180;2022-12-29T08:25:58;96398.97;;;10.75;79.33
11936;BME280;6027;48.576;9.180;2022-12-29T08:28:24;96408.69;;;10.67;79.65
11936;BME280;6027;48.576;9.180;2022-12-29T08:30:50;96404.81;;;10.70;77.77
11936;BME280;6027;48.576;9.180;2022-12-29T08:33:15;96401.19;;;10.78;77.94
11936;BME280;6027;48.576;9.180;2022-12-29T08:35:40;96403.88;;;10.84;77.79
11936;BME280;6027;48.576;9.180;2022-12-29T08:38:06;96406.72;;;10.76;76.69
11936;BME280;6027;48.576;9.180;2022-12-29T08:40:31;96405.28;;;10.80;77.95
11936;BME280;6027;48.576;9.180;2022-12-29T08:42:57;96396.38;;;10.88;76.54
11936;BME280;6027;48.576;9.180;2022-12-29T08:45:22;96394.16;;;10.91;75.86
11936;BME280;6027;48.576;9.180;2022-12-29T08:47:47;96403.16;;;11.03;74.43
11936;BME280;6027;48.576;9.180;2022-12-29T08:50:13;96400.91;;;11.00;74.99
11936;BME280;6027;48.576;9.180;2022-12-29T08:52:38;96399.09;;;11.01;75.55
11936;BME280;6027;48.576;9.180;2022-12-29T08:55:04;96405.38;;;11.00;75.11
11936;BME280;6027;48.576;9.180;2022-12-29T08:57:34;96394.78;;;11.00;74.42
11936;BME280;6027;48.576;9.180;2022-12-29T09:00:00;96389.97;;;11.17;73.07
11936;BME280;6027;48.576;9.180;2022-12-29T09:02:26;96374.31;;;11.22;72.33
11936;BME280;6027;48.576;9.180;2022-12-29T09:04:51;96374.97;;;11.30;71.47
11936;BME280;6027;48.576;9.180;2022-12-29T09:07:16;96391.88;;;11.36;71.19
11936;BME280;6027;48.576;9.180;2022-12-29T09:09:42;96395.19;;;11.45;70.54
11936;BME280;6027;48.576;9.180;2022-12-29T09:12:07;96390.94;;;11.50;70.56
11936;BME280;6027;48.576;9.180;2022-12-29T09:14:33;96394.38;;;11.44;71.29
11936;BME280;6027;48.576;9.180;2022-12-29T09:16:58;96400.28;;;11.46;71.01
11936;BME280;6027;48.576;9.180;2022-12-29T09:19:42;96410.91;;;11.46;71.87
11936;BME280;6027;48.576;9.180;2022-12-29T09:22:08;96405.59;;;11.46;71.92
11936;BME280;6027;48.576;9.180;2022-12-29T09:24:33;96411.91;;;11.45;72.41
11936;BME280;6027;48.576;9.180;2022-12-29T09:26:59;96414.38;;;11.47;72.21
11936;BME280;6027;48.576;9.180;2022-12-29T09:29:24;96420.50;;;11.47;72.60
11936;BME280;6027;48.576;9.180;2022-12-29T09:31:50;96426.56;;;11.41;74.41
11936;BME280;6027;48.576;9.180;2022-12-29T09:34:15;96422.13;;;11.48;73.92
11936;BME280;6027;48.576;9.180;2022-12-29T09:39:46;96436.16;;;11.42;75.83
11936;BME280;6027;48.576;9.180;2022-12-29T09:42:27;96435.53;;;11.40;75.96
11936;BME280;6027;48.576;9.180;2022-12-29T09:47:30;96425.13;;;11.32;78.43
11936;BME280;6027;48.576;9.180;2022-12-29T09:50:01;96414.53;;;11.32;77.70
11936;BME280;6027;48.576;9.180;2022-12-29T09:52:43;96426.16;;;11.37;77.82
11936;BME280;6027;48.576;9.180;2022-12-29T09:55:19;96430.63;;;11.30;78.72
11936;BME280;6027;48.576;9.180;2022-12-29T09:57:49;96416.31;;;11.25;79.32
11936;BME280;6027;48.576;9.180;2022-12-29T10:00:36;96411.44;;;11.28;79.09
11936;BME280;6027;48.576;9.180;2022-12-29T10:03:15;96411.69;;;11.33;78.30
11936;BME280;6027;48.576;9.180;2022-12-29T10:05:50;96421.47;;;11.39;78.59
11936;BME280;6027;48.576;9.180;2022-12-29T10:08:26;96419.63;;;11.40;79.50
11936;BME280;6027;48.576;9.180;2022-12-29T10:10:56;96423.91;;;11.34;79.68
11936;BME280;6027;48.576;9.180;2022-12-29T10:16:14;96429.59;;;11.31;80.30
11936;BME280;6027;48.576;9.180;2022-12-29T10:18:52;96423.50;;;11.31;80.21
11936;BME280;6027;48.576;9.180;2022-12-29T10:23:59;96411.06;;;11.31;80.08
11936;BME280;6027;48.576;9.180;2022-12-29T10:26:28;96414.91;;;11.35;78.52
11936;BME280;6027;48.576;9.180;2022-12-29T10:28:58;96406.81;;;11.43;78.50
11936;BME280;6027;48.576;9.180;2022-12-29T10:31:53;96426.41;;;11.49;78.79
11936;BME280;6027;48.576;9.180;2022-12-29T10:37:09;96419.00;;;11.38;79.80
11936;BME280;6027;48.576;9.180;2022-12-29T10:39:42;96423.09;;;11.40;79.54
11936;BME280;6027;48.576;9.180;2022-12-29T10:42:25;96430.03;;;11.35;80.89
11936;BME280;6027;48.576;9.180;2022-12-29T10:44:55;96409.63;;;11.35;79.94
11936;BME280;6027;48.576;9.180;2022-12-29T10:47:28;96413.50;;;11.33;80.14
11936;BME280;6027;48.576;9.180;2022-12-29T10:49:55;96402.53;;;11.42;80.11
11936;BME280;6027;48.576;9.180;2022-12-29T10:52:25;96404.97;;;11.44;80.00
11936;BME280;6027;48.576;9.180;2022-12-29T10:54:59;96402.94;;;11.46;80.38
11936;BME280;6027;48.576;9.180;2022-12-29T10:57:36;96409.88;;;11.47;80.46
11936;BME280;6027;48.576;9.180;2022-12-29T11:00:13;96416.41;;;11.45;81.89
11936;BME280;6027;48.576;9.180;2022-12-29T11:05:27;96414.38;;;11.47;81.61
11936;BME280;6027;48.576;9.180;2022-12-29T11:08:00;96419.25;;;11.43;83.58
11936;BME280;6027;48.576;9.180;2022-12-29T11:10:41;96405.38;;;11.41;83.82
11936;BME280;6027;48.576;9.180;2022-12-29T11:13:16;96412.09;;;11.43;82.74
11936;BME280;6027;48.576;9.180;2022-12-29T11:15:48;96417.88;;;11.54;84.16
11936;BME280;6027;48.576;9.180;2022-12-29T11:18:23;96423.38;;;11.52;85.33
11936;BME280;6027;48.576;9.180;2022-12-29T11:20:58;96433.78;;;11.54;89.88
11936;BME280;6027;48.576;9.180;2022-12-29T11:23:41;96435.97;;;11.43;96.42
11936;BME280;6027;48.576;9.180;2022-12-29T11:28:41;96451.34;;;11.20;100.00
11936;BME280;6027;48.576;9.180;2022-12-29T11:31:08;96462.06;;;11.05;99.77
11936;BME280;6027;48.576;9.180;2022-12-29T11:33:38;96455.91;;;10.98;100.00
11936;BME280;6027;48.576;9.180;2022-12-29T11:38:35;96448.34;;;10.61;100.00
11936;BME280;6027;48.576;9.180;2022-12-29T11:41:02;96445.84;;;10.53;100.00
11936;BME280;6027;48.576;9.180;2022-12-29T11:43:41;96448.31;;;10.54;100.00
11936;BME280;6027;48.576;9.180;2022-12-29T11:46:18;96446.66;;;10.53;100.00
11936;BME280;6027;48.576;9.180;2022-12-29T11:48:46;96435.06;;;10.54;100.00
11936;BME280;6027;48.576;9.180;2022-12-29T11:51:11;96440.16;;;10.56;100.00
11936;BME280;6027;48.576;9.180;2022-12-29T11:53:49;96437.72;;;10.54;100.00
11936;BME280;6027;48.576;9.180;2022-12-29T11:56:17;96446.28;;;10.56;100.00
11936;BME280;6027;48.576;9.180;2022-12-29T11:58:45;96432.41;;;10.54;100.00
11936;BME280;6027;48.576;9.180;2022-12-29T12:01:29;96438.94;;;10.58;100.00
11936;BME280;6027;48.576;9.180;2022-12-29T12:04:03;96433.88;;;10.57;100.00
11936;BME280;6027;48.576;9.180;2022-12-29T12:06:33;96424.28;;;10.56;100.00
11936;BME280;6027;48.576;9.180;2022-12-29T12:09:23;96439.00;;;10.65;100.00
11936;BME280;6027;48.576;9.180;2022-12-29T12:11:52;96440.38;;;10.61;100.00
11936;BME280;6027;48.576;9.180;2022-12-29T12:14:38;96429.16;;;10.59;100.00
11936;BME280;6027;48.576;9.180;2022-12-29T12:17:16;96431.25;;;10.63;100.00
11936;BME280;6027;48.576;9.180;2022-12-29T12:19:53;96430.25;;;10.64;100.00
11936;BME280;6027;48.576;9.180;2022-12-29T12:22:30;96427.16;;;10.61;100.00
11936;BME280;6027;48.576;9.180;2022-12-29T12:25:04;96439.00;;;10.65;100.00
11936;BME280;6027;48.576;9.180;2022-12-29T12:38:04;96430.66;;;10.40;100.00
11936;BME280;6027;48.576;9.180;2022-12-29T12:52:33;96444.25;;;10.30;100.00
11936;BME280;6027;48.576;9.180;2022-12-29T12:55:32;96422.00;;;10.25;100.00
11936;BME280;6027;48.576;9.180;2022-12-29T13:16:29;96411.41;;;10.25;100.00
11936;BME280;6027;48.576;9.180;2022-12-29T13:27:38;96405.44;;;10.37;100.00
11936;BME280;6027;48.576;9.180;2022-12-29T13:35:56;96402.00;;;10.44;100.00
11936;BME280;6027;48.576;9.180;2022-12-29T13:38:37;96398.53;;;10.43;100.00
11936;BME280;6027;48.576;9.180;2022-12-29T13:41:10;96403.13;;;10.56;100.00
11936;BME280;6027;48.576;9.180;2022-12-29T13:43:40;96400.88;;;10.59;100.00
11936;BME280;6027;48.576;9.180;2022-12-29T13:46:11;96395.06;;;10.70;100.00
11936;BME280;6027;48.576;9.180;2022-12-29T13:48:53;96388.56;;;10.73;100.00
11936;BME280;6027;48.576;9.180;2022-12-29T13:51:21;96386.72;;;10.73;100.00
11936;BME280;6027;48.576;9.180;2022-12-29T13:56:42;96385.72;;;10.75;100.00
11936;BME280;6027;48.576;9.180;2022-12-29T14:05:26;96397.19;;;10.88;100.00
11936;BME280;6027;48.576;9.180;2022-12-29T14:07:59;96394.59;;;10.95;100.00
11936;BME280;6027;48.576;9.180;2022-12-29T14:13:23;96381.41;;;11.08;100.00
11936;BME280;6027;48.576;9.180;2022-12-29T14:15:52;96384.03;;;11.08;100.00
11936;BME280;6027;48.576;9.180;2022-12-29T14:18:21;96384.44;;;11.05;100.00
11936;BME280;6027;48.576;9.180;2022-12-29T14:23:38;96371.03;;;11.20;100.00
11936;BME280;6027;48.576;9.180;2022-12-29T14:28:35;96373.88;;;11.12;100.00
11936;BME280;6027;48.576;9.180;2022-12-29T14:36:36;96376.06;;;11.01;100.00
11936;BME280;6027;48.576;9.180;2022-12-29T14:45:23;96384.78;;;10.89;100.00
11936;BME280;6027;48.576;9.180;2022-12-29T14:47:52;96391.94;;;10.95;100.00
11936;BME280;6027;48.576;9.180;2022-12-29T14:50:22;96395.38;;;10.89;100.00
11936;BME280;6027;48.576;9.180;2022-12-29T14:52:55;96393.69;;;10.81;100.00
11936;BME280;6027;48.576;9.180;2022-12-29T14:58:28;96399.53;;;10.70;100.00
11936;BME280;6027;48.576;9.180;2022-12-29T15:00:55;96381.78;;;10.64;100.00
11936;BME280;6027;48.576;9.180;2022-12-29T15:03:29;96397.84;;;10.62;100.00
11936;BME280;6027;48.576;9.180;2022-12-29T15:08:25;96392.91;;;10.53;100.00
11936;BME280;6027;48.576;9.180;2022-12-29T15:11:00;96395.56;;;10.53;100.00
11936;BME280;6027;48.576;9.180;2022-12-29T15:13:39;96395.69;;;10.45;100.00
11936;BME280;6027;48.576;9.180;2022-12-29T15:16:34;96396.06;;;10.42;100.00
11936;BME280;6027;48.576;9.180;2022-12-29T15:19:02;96402.59;;;10.39;100.00
11936;BME280;6027;48.576;9.180;2022-12-29T15:21:34;96398.50;;;10.36;100.00
11936;BME280;6027;48.576;9.180;2022-12-29T15:24:00;96401.53;;;10.33;100.00
11936;BME280;6027;48.576;9.180;2022-12-29T15:26:46;96408.00;;;10.31;100.00
11936;BME280;6027;48.576;9.180;2022-12-29T15:31:57;96402.28;;;10.27;100.00
11936;BME280;6027;48.576;9.180;2022-12-29T15:34:24;96397.38;;;10.24;100.00
11936;BME280;6027;48.576;9.180;2022-12-29T15:36:50;96398.00;;;10.26;100.00
11936;BME280;6027;48.576;9.180;2022-12-29T15:39:30;96392.31;;;10.29;100.00
11936;BME280;6027;48.576;9.180;2022-12-29T15:42:13;96406.06;;;10.18;100.00
11936;BME280;6027;48.576;9.180;2022-12-29T15:44:44;96402.22;;;10.21;100.00
11936;BME280;6027;48.576;9.180;2022-12-29T15:47:22;96402.44;;;10.19;100.00
11936;BME280;6027;48.576;9.180;2022-12-29T15:49:59;96410.38;;;10.19;100.00
11936;BME280;6027;48.576;9.180;2022-12-29T15:52:31;96412.19;;;10.19;100.00